createdAt,value
2019-03-23T00:02:06.778Z,1.27
2019-03-23T00:04:13.519Z,1.26
2019-03-23T00:06:30.248Z,1.26
2019-03-23T00:08:28.983Z,1.22
2019-03-23T00:10:35.727Z,1.19
2019-03-23T00:12:42.393Z,1.15
2019-03-23T00:14:49.160Z,1.12
2019-03-23T00:16:55.924Z,1.08
2019-03-23T00:19:02.685Z,1.05
2019-03-23T00:21:09.385Z,1.04
2019-03-23T00:23:16.053Z,1.22
2019-03-23T00:25:22.731Z,1.29
2019-03-23T00:27:29.435Z,1.28
2019-03-23T00:29:36.168Z,1.39
2019-03-23T00:31:42.822Z,1.63
2019-03-23T00:33:49.618Z,1.70
2019-03-23T00:35:56.303Z,1.67
2019-03-23T00:38:03.043Z,1.60
2019-03-23T00:40:11.748Z,1.62
2019-03-23T00:42:18.521Z,1.67
2019-03-23T00:44:25.297Z,1.71
2019-03-23T00:46:32.005Z,1.68
2019-03-23T00:48:38.678Z,1.66
2019-03-23T00:50:46.356Z,1.65
2019-03-23T00:52:53.223Z,1.60
2019-03-23T00:54:59.894Z,1.60
2019-03-23T00:57:06.556Z,1.61
2019-03-23T00:59:13.349Z,1.59
2019-03-23T01:01:20.923Z,1.60
2019-03-23T01:03:27.595Z,1.57
2019-03-23T01:05:34.286Z,1.58
2019-03-23T01:07:41.042Z,1.56
2019-03-23T01:09:47.707Z,1.54
2019-03-23T01:11:54.430Z,1.53
2019-03-23T01:14:01.114Z,1.50
2019-03-23T01:16:07.972Z,1.52
2019-03-23T01:18:14.678Z,1.51
2019-03-23T01:20:21.333Z,1.52
2019-03-23T01:22:28.010Z,1.56
2019-03-23T01:24:34.698Z,1.58
2019-03-23T01:26:41.365Z,1.59
2019-03-23T01:28:48.140Z,1.50
2019-03-23T01:30:54.838Z,1.41
2019-03-23T01:33:01.523Z,1.31
2019-03-23T01:35:09.580Z,1.22
2019-03-23T01:37:16.266Z,1.14
2019-03-23T01:39:22.933Z,1.04
2019-03-23T01:41:29.679Z,1.00
2019-03-23T01:43:36.421Z,0.99
2019-03-23T01:45:43.191Z,0.98
2019-03-23T01:47:49.864Z,0.95
2019-03-23T01:49:56.553Z,0.90
2019-03-23T01:52:03.238Z,0.86
2019-03-23T01:54:09.993Z,0.79
2019-03-23T01:56:16.665Z,0.73
2019-03-23T01:58:23.338Z,0.66
2019-03-23T02:00:31.007Z,0.64
2019-03-23T02:02:37.779Z,0.60
2019-03-23T02:04:44.449Z,0.58
2019-03-23T02:06:51.127Z,0.54
2019-03-23T02:08:57.819Z,0.51
2019-03-23T02:11:05.675Z,0.48
2019-03-23T02:13:12.357Z,0.45
2019-03-23T02:15:19.328Z,0.41
2019-03-23T02:17:26.000Z,0.34
2019-03-23T02:19:32.682Z,0.27
2019-03-23T02:21:39.524Z,0.20
2019-03-23T02:23:46.182Z,0.10
2019-03-23T02:25:52.921Z,0.03
2019-03-23T02:27:59.893Z,-0.01
2019-03-23T02:30:11.089Z,-0.02
2019-03-23T02:32:17.812Z,-0.05
2019-03-23T02:34:24.515Z,-0.07
2019-03-23T02:36:31.190Z,-0.09
2019-03-23T02:38:37.874Z,-0.15
2019-03-23T02:40:44.756Z,-0.17
2019-03-23T02:42:51.429Z,-0.20
2019-03-23T02:44:58.119Z,-0.24
2019-03-23T02:47:04.883Z,-0.26
2019-03-23T02:49:11.546Z,-0.27
2019-03-23T02:51:18.224Z,-0.31
2019-03-23T02:53:24.930Z,-0.34
2019-03-23T02:55:31.683Z,-0.37
2019-03-23T02:57:38.370Z,-0.38
2019-03-23T02:59:45.092Z,-0.42
2019-03-23T03:01:51.828Z,-0.43
2019-03-23T03:03:58.507Z,-0.44
2019-03-23T03:06:05.277Z,-0.46
2019-03-23T03:08:11.951Z,-0.45
2019-03-23T03:10:38.588Z,-0.47
2019-03-23T03:12:45.325Z,-0.51
2019-03-23T03:14:53.006Z,-0.56
2019-03-23T03:16:59.678Z,-0.57
2019-03-23T03:19:06.389Z,-0.59
2019-03-23T03:21:13.065Z,-0.64
2019-03-23T03:23:19.750Z,-0.58
2019-03-23T03:25:26.648Z,-0.55
2019-03-23T03:27:33.337Z,-0.52
2019-03-23T03:29:40.011Z,-0.36
2019-03-23T03:31:46.710Z,-0.34
2019-03-23T03:33:53.482Z,-0.40
2019-03-23T03:36:03.227Z,-0.37
2019-03-23T03:38:09.913Z,-0.34
2019-03-23T03:40:16.803Z,-0.38
2019-03-23T03:42:23.572Z,-0.40
2019-03-23T03:44:30.349Z,-0.43
2019-03-23T03:46:37.093Z,-0.46
2019-03-23T03:48:43.768Z,-0.52
2019-03-23T03:50:50.542Z,-0.54
2019-03-23T03:52:57.228Z,-0.55
2019-03-23T03:55:04.698Z,-0.54
2019-03-23T03:57:12.404Z,-0.50
2019-03-23T03:59:19.168Z,-0.46
2019-03-23T04:01:25.844Z,-0.48
2019-03-23T04:03:32.541Z,-0.54
2019-03-23T04:05:39.211Z,-0.55
2019-03-23T04:07:47.597Z,-0.46
2019-03-23T04:09:54.408Z,-0.42
2019-03-23T04:12:01.279Z,-0.46
2019-03-23T04:14:09.426Z,-0.44
2019-03-23T04:16:16.127Z,-0.47
2019-03-23T04:18:23.226Z,-0.52
2019-03-23T04:20:29.903Z,-0.53
2019-03-23T04:22:36.668Z,-0.53
2019-03-23T04:24:43.422Z,-0.49
2019-03-23T04:26:50.091Z,-0.46
2019-03-23T04:28:56.810Z,-0.46
2019-03-23T04:31:03.507Z,-0.36
2019-03-23T04:33:10.266Z,-0.25
2019-03-23T04:35:16.964Z,-0.19
2019-03-23T04:37:23.714Z,-0.07
2019-03-23T04:39:30.393Z,0.13
2019-03-23T04:41:37.169Z,0.17
2019-03-23T04:43:44.983Z,0.15
2019-03-23T04:45:51.650Z,0.15
2019-03-23T04:47:58.416Z,0.19
2019-03-23T04:50:09.343Z,0.25
2019-03-23T04:52:16.016Z,0.33
2019-03-23T04:54:22.715Z,0.42
2019-03-23T04:56:29.382Z,0.45
2019-03-23T04:58:36.135Z,0.51
2019-03-23T05:00:42.827Z,0.60
2019-03-23T05:02:49.498Z,0.66
2019-03-23T05:04:56.220Z,0.69
2019-03-23T05:07:02.939Z,0.74
2019-03-23T05:09:10.604Z,0.84
2019-03-23T05:11:17.278Z,0.95
2019-03-23T05:13:23.975Z,1.06
2019-03-23T05:15:30.712Z,1.20
2019-03-23T05:17:37.888Z,1.35
2019-03-23T05:19:44.569Z,2.09
2019-03-23T05:21:51.313Z,3.09
2019-03-23T05:23:57.982Z,4.03
2019-03-23T05:26:04.669Z,5.19
2019-03-23T05:28:11.355Z,6.95
2019-03-23T05:30:18.020Z,8.42
2019-03-23T05:32:24.793Z,9.67
2019-03-23T05:34:31.473Z,10.41
2019-03-23T05:36:38.328Z,11.66
2019-03-23T05:38:45.103Z,12.89
2019-03-23T05:40:51.790Z,13.66
2019-03-23T05:42:58.465Z,13.60
2019-03-23T05:45:06.665Z,13.33
2019-03-23T05:47:13.341Z,13.78
2019-03-23T05:49:20.024Z,14.26
2019-03-23T05:51:26.732Z,15.70
2019-03-23T05:53:33.406Z,16.56
2019-03-23T05:55:40.094Z,17.65
2019-03-23T05:57:46.777Z,18.40
2019-03-23T05:59:53.452Z,19.23
2019-03-23T06:02:00.238Z,19.55
2019-03-23T06:04:06.923Z,20.15
2019-03-23T06:06:13.668Z,21.11
2019-03-23T06:08:20.412Z,21.32
2019-03-23T06:10:27.123Z,22.08
2019-03-23T06:12:33.801Z,22.36
2019-03-23T06:14:40.472Z,22.29
2019-03-23T06:16:47.212Z,22.77
2019-03-23T06:18:53.879Z,23.27
2019-03-23T06:21:00.564Z,23.47
2019-03-23T06:23:07.255Z,23.65
2019-03-23T06:25:14.015Z,23.93
2019-03-23T06:27:20.685Z,24.20
2019-03-23T06:29:27.446Z,24.96
2019-03-23T06:31:34.185Z,25.73
2019-03-23T06:33:40.853Z,25.92
2019-03-23T06:35:47.552Z,25.63
2019-03-23T06:37:54.221Z,26.37
2019-03-23T06:40:00.890Z,26.00
2019-03-23T06:42:07.571Z,26.23
2019-03-23T06:44:14.300Z,25.71
2019-03-23T06:46:21.734Z,25.58
2019-03-23T06:48:28.411Z,26.28
2019-03-23T06:50:35.078Z,26.53
2019-03-23T06:52:41.743Z,27.13
2019-03-23T06:54:48.443Z,27.14
2019-03-23T06:56:55.105Z,26.43
2019-03-23T06:59:01.793Z,28.21
2019-03-23T07:01:08.472Z,28.16
2019-03-23T07:03:15.217Z,28.70
2019-03-23T07:05:21.899Z,29.45
2019-03-23T07:07:28.591Z,26.16
2019-03-23T07:09:35.327Z,26.08
2019-03-23T07:11:42.007Z,24.15
2019-03-23T07:13:48.690Z,24.69
2019-03-23T07:15:55.352Z,25.66
2019-03-23T07:18:02.096Z,25.32
2019-03-23T07:20:14.502Z,25.63
2019-03-23T07:22:21.168Z,24.37
2019-03-23T07:24:27.854Z,23.53
2019-03-23T07:26:34.591Z,25.35
2019-03-23T07:28:41.263Z,25.90
2019-03-23T07:30:47.932Z,23.05
2019-03-23T07:32:54.625Z,23.76
2019-03-23T07:35:01.296Z,22.54
2019-03-23T07:37:09.132Z,22.92
2019-03-23T07:39:26.533Z,22.94
2019-03-23T07:41:24.284Z,24.65
2019-03-23T07:43:30.975Z,25.51
2019-03-23T07:45:37.652Z,25.01
2019-03-23T07:47:44.427Z,23.84
2019-03-23T07:49:51.180Z,24.70
2019-03-23T07:51:58.873Z,25.03
2019-03-23T07:54:05.605Z,21.77
2019-03-23T07:56:12.275Z,18.85
2019-03-23T07:58:19.033Z,16.44
2019-03-23T08:00:25.692Z,15.35
2019-03-23T08:02:32.359Z,14.06
2019-03-23T08:04:39.052Z,12.78
2019-03-23T08:06:45.723Z,11.90
2019-03-23T08:08:52.472Z,11.60
2019-03-23T08:10:59.230Z,11.17
2019-03-23T08:13:06.106Z,11.14
2019-03-23T08:15:12.786Z,11.29
2019-03-23T08:17:19.550Z,11.31
2019-03-23T08:19:26.290Z,11.01
2019-03-23T08:23:48.267Z,11.16
2019-03-23T08:25:54.924Z,10.98
2019-03-23T08:28:01.610Z,10.86
2019-03-23T08:30:08.504Z,10.59
2019-03-23T08:32:15.244Z,10.37
2019-03-23T08:34:21.980Z,10.34
2019-03-23T08:36:28.756Z,10.27
2019-03-23T08:38:35.430Z,10.33
2019-03-23T08:40:42.183Z,10.53
2019-03-23T08:42:48.881Z,10.79
2019-03-23T08:44:55.548Z,11.05
2019-03-23T08:47:02.216Z,11.28
2019-03-23T08:49:08.999Z,11.18
2019-03-23T08:51:15.677Z,11.08
2019-03-23T08:53:22.335Z,11.20
2019-03-23T08:55:29.054Z,11.28
2019-03-23T08:57:35.758Z,11.34
2019-03-23T08:59:42.424Z,11.23
2019-03-23T09:01:49.122Z,11.19
2019-03-23T09:03:55.800Z,11.10
2019-03-23T09:06:02.473Z,10.98
2019-03-23T09:08:09.179Z,11.23
2019-03-23T09:10:15.849Z,11.35
2019-03-23T09:12:22.513Z,11.41
2019-03-23T09:14:29.216Z,11.26
2019-03-23T09:16:35.877Z,11.24
2019-03-23T09:18:42.541Z,11.32
2019-03-23T09:20:49.253Z,11.40
2019-03-23T09:22:55.897Z,11.28
2019-03-23T09:25:02.644Z,11.17
2019-03-23T09:27:09.343Z,11.23
2019-03-23T09:29:16.012Z,11.38
2019-03-23T09:31:22.679Z,11.37
2019-03-23T09:33:29.361Z,11.45
2019-03-23T09:35:39.368Z,11.61
2019-03-23T09:37:44.418Z,11.63
2019-03-23T09:39:51.212Z,11.50
2019-03-23T09:41:57.860Z,11.43
2019-03-23T09:44:04.564Z,11.54
2019-03-23T09:46:11.302Z,11.63
2019-03-23T09:48:17.979Z,11.57
2019-03-23T09:50:24.672Z,11.44
2019-03-23T09:52:31.423Z,11.57
2019-03-23T09:54:38.189Z,11.72
2019-03-23T09:56:44.856Z,11.72
2019-03-23T09:58:51.554Z,11.78
2019-03-23T10:00:58.213Z,11.69
2019-03-23T10:03:04.949Z,11.64
2019-03-23T10:05:11.631Z,11.66
2019-03-23T10:07:18.294Z,11.74
2019-03-23T10:09:24.969Z,11.78
2019-03-23T10:11:31.750Z,11.76
2019-03-23T10:13:38.414Z,11.99
2019-03-23T10:15:45.082Z,12.20
2019-03-23T10:17:51.800Z,12.37
2019-03-23T10:19:58.458Z,12.44
2019-03-23T10:22:05.118Z,12.33
2019-03-23T10:24:11.826Z,12.33
2019-03-23T10:26:18.495Z,12.40
2019-03-23T10:28:25.159Z,12.49
2019-03-23T10:30:31.858Z,12.54
2019-03-23T10:32:38.526Z,12.65
2019-03-23T10:34:45.191Z,12.68
2019-03-23T10:36:52.003Z,12.80
2019-03-23T10:38:58.738Z,12.79
2019-03-23T10:41:05.411Z,12.74
2019-03-23T10:43:12.177Z,12.76
2019-03-23T10:45:20.015Z,12.81
2019-03-23T10:47:26.721Z,12.84
2019-03-23T10:49:33.483Z,12.89
2019-03-23T10:51:40.187Z,12.93
2019-03-23T10:53:46.851Z,12.95
2019-03-23T10:55:53.540Z,12.85
2019-03-23T10:58:00.222Z,12.88
2019-03-23T11:00:11.691Z,12.83
2019-03-23T11:02:18.388Z,12.85
2019-03-23T11:04:25.064Z,12.92
2019-03-23T11:06:32.012Z,13.13
2019-03-23T11:08:38.703Z,13.16
2019-03-23T11:10:45.516Z,13.10
2019-03-23T11:12:52.172Z,13.27
2019-03-23T11:14:58.868Z,13.37
2019-03-23T11:17:05.532Z,13.34
2019-03-23T11:19:13.633Z,13.32
2019-03-23T11:21:20.665Z,13.43
2019-03-23T11:23:27.408Z,13.57
2019-03-23T11:25:34.066Z,13.71
2019-03-23T11:27:40.760Z,13.50
2019-03-23T11:29:47.506Z,13.66
2019-03-23T11:31:54.167Z,13.69
2019-03-23T11:34:00.849Z,13.73
2019-03-23T11:36:07.556Z,13.72
2019-03-23T11:38:14.220Z,13.62
2019-03-23T11:40:20.940Z,13.66
2019-03-23T11:42:27.677Z,13.67
2019-03-23T11:44:34.462Z,13.66
2019-03-23T11:46:41.210Z,13.77
2019-03-23T11:48:47.885Z,13.76
2019-03-23T11:50:54.594Z,13.92
2019-03-23T11:53:01.346Z,13.98
2019-03-23T11:55:09.883Z,13.98
2019-03-23T11:57:16.549Z,14.00
2019-03-23T11:59:23.242Z,13.99
2019-03-23T12:01:29.984Z,13.95
2019-03-23T12:03:36.640Z,13.97
2019-03-23T12:05:43.338Z,14.02
2019-03-23T12:07:50.003Z,14.05
2019-03-23T12:09:56.750Z,14.03
2019-03-23T12:12:03.625Z,14.05
2019-03-23T12:14:10.284Z,14.13
2019-03-23T12:16:16.941Z,14.21
2019-03-23T12:18:23.635Z,14.38
2019-03-23T12:20:30.294Z,14.41
2019-03-23T12:22:37.078Z,14.26
2019-03-23T12:24:43.835Z,14.39
2019-03-23T12:26:50.552Z,14.49
2019-03-23T12:28:57.210Z,14.51
2019-03-23T12:31:04.033Z,14.51
2019-03-23T12:33:10.698Z,14.30
2019-03-23T12:35:17.364Z,14.10
2019-03-23T12:37:24.164Z,14.18
2019-03-23T12:39:30.896Z,14.28
2019-03-23T12:41:37.559Z,14.28
2019-03-23T12:43:44.233Z,14.45
2019-03-23T12:45:51.905Z,14.61
2019-03-23T12:47:58.565Z,14.73
2019-03-23T12:50:08.221Z,14.81
2019-03-23T12:52:16.412Z,14.87
2019-03-23T12:54:23.082Z,14.95
2019-03-23T12:56:29.779Z,15.06
2019-03-23T12:58:36.645Z,14.95
2019-03-23T13:00:43.321Z,14.91
2019-03-23T13:02:50.056Z,14.97
2019-03-23T13:04:56.750Z,15.00
2019-03-23T13:07:03.427Z,15.04
2019-03-23T13:09:10.123Z,15.05
2019-03-23T13:11:23.373Z,15.04
2019-03-23T13:13:25.297Z,15.05
2019-03-23T13:15:32.215Z,15.10
2019-03-23T13:17:38.970Z,15.12
2019-03-23T13:19:45.630Z,15.10
2019-03-23T13:21:52.397Z,15.12
2019-03-23T13:23:59.058Z,15.09
2019-03-23T13:26:05.816Z,15.05
2019-03-23T13:28:12.495Z,15.04
2019-03-23T13:30:19.558Z,14.98
2019-03-23T13:32:26.223Z,14.98
2019-03-23T13:34:32.902Z,15.03
2019-03-23T13:36:39.580Z,15.07
2019-03-23T13:38:46.245Z,15.02
2019-03-23T13:40:52.925Z,15.03
2019-03-23T13:42:59.584Z,15.06
2019-03-23T13:45:10.057Z,15.14
2019-03-23T13:47:16.902Z,15.13
2019-03-23T13:49:23.528Z,15.16
2019-03-23T13:51:30.241Z,15.20
2019-03-23T13:53:37.796Z,15.18
2019-03-23T13:55:44.544Z,15.10
2019-03-23T13:57:51.205Z,15.05
2019-03-23T13:59:57.882Z,15.06
2019-03-23T14:02:04.613Z,15.05
2019-03-23T14:04:12.349Z,15.03
2019-03-23T14:06:19.029Z,15.08
2019-03-23T14:08:26.885Z,15.12
2019-03-23T14:10:33.660Z,15.10
2019-03-23T14:12:40.344Z,15.10
2019-03-23T14:14:48.084Z,15.00
2019-03-23T14:16:54.806Z,14.97
2019-03-23T14:19:01.486Z,15.02
2019-03-23T14:21:08.157Z,15.00
2019-03-23T14:23:14.815Z,15.01
2019-03-23T14:25:21.498Z,15.04
2019-03-23T14:27:28.152Z,14.99
2019-03-23T14:29:34.822Z,14.87
2019-03-23T14:31:41.504Z,14.87
2019-03-23T14:33:48.156Z,14.93
2019-03-23T14:35:54.818Z,14.97
2019-03-23T14:38:01.508Z,15.01
2019-03-23T14:40:08.764Z,15.02
2019-03-23T14:42:15.497Z,15.04
2019-03-23T14:44:22.183Z,15.06
2019-03-23T14:46:28.852Z,15.04
2019-03-23T14:48:36.698Z,14.98
2019-03-23T14:50:43.377Z,14.94
2019-03-23T14:52:50.037Z,14.90
2019-03-23T14:54:56.725Z,14.87
2019-03-23T14:57:03.423Z,14.86
2019-03-23T14:59:10.080Z,14.87
2019-03-23T15:01:16.749Z,14.88
2019-03-23T15:03:23.428Z,14.86
2019-03-23T15:05:30.186Z,14.83
2019-03-23T15:07:36.943Z,14.82
2019-03-23T15:09:43.644Z,14.78
2019-03-23T15:11:50.308Z,14.74
2019-03-23T15:13:56.973Z,14.67
2019-03-23T15:16:03.678Z,14.55
2019-03-23T15:18:10.346Z,14.51
2019-03-23T15:20:17.014Z,14.46
2019-03-23T15:22:23.722Z,14.44
2019-03-23T15:24:30.388Z,14.41
2019-03-23T15:26:37.115Z,14.37
2019-03-23T15:28:43.807Z,14.34
2019-03-23T15:30:50.910Z,14.31
2019-03-23T15:32:57.761Z,14.30
2019-03-23T15:35:06.880Z,14.27
2019-03-23T15:37:12.649Z,14.25
2019-03-23T15:39:20.353Z,14.22
2019-03-23T15:41:27.046Z,14.19
2019-03-23T15:43:33.716Z,14.14
2019-03-23T15:45:40.457Z,14.12
2019-03-23T15:47:47.146Z,14.07
2019-03-23T15:49:53.822Z,14.07
2019-03-23T15:52:00.499Z,14.04
2019-03-23T15:54:07.198Z,14.01
2019-03-23T15:56:13.871Z,13.98
2019-03-23T15:58:20.539Z,13.92
2019-03-23T16:00:27.299Z,13.86
2019-03-23T16:02:33.973Z,13.82
2019-03-23T16:04:40.719Z,13.79
2019-03-23T16:06:47.426Z,13.74
2019-03-23T16:08:54.095Z,13.69
2019-03-23T16:11:00.756Z,13.64
2019-03-23T16:13:07.465Z,13.58
2019-03-23T16:15:14.932Z,13.51
2019-03-23T16:17:21.603Z,13.47
2019-03-23T16:19:28.299Z,13.40
2019-03-23T16:21:35.032Z,13.32
2019-03-23T16:23:41.729Z,13.25
2019-03-23T16:25:48.420Z,13.15
2019-03-23T16:27:55.090Z,13.09
2019-03-23T16:30:01.768Z,13.01
2019-03-23T16:32:09.451Z,12.93
2019-03-23T16:34:16.202Z,12.83
2019-03-23T16:36:22.925Z,12.74
2019-03-23T16:38:29.725Z,12.65
2019-03-23T16:40:36.409Z,12.54
2019-03-23T16:42:45.458Z,12.42
2019-03-23T16:44:51.622Z,12.31
2019-03-23T16:46:58.291Z,12.22
2019-03-23T16:49:04.968Z,12.10
2019-03-23T16:51:11.662Z,11.98
2019-03-23T16:53:18.376Z,11.85
2019-03-23T16:55:25.046Z,11.72
2019-03-23T16:57:31.743Z,11.62
2019-03-23T16:59:39.273Z,11.55
2019-03-23T17:01:46.955Z,11.42
2019-03-23T17:03:53.860Z,11.32
2019-03-23T17:06:00.525Z,11.25
2019-03-23T17:08:07.964Z,11.16
2019-03-23T17:10:15.094Z,11.06
2019-03-23T17:12:21.846Z,10.98
2019-03-23T17:14:28.605Z,10.88
2019-03-23T17:16:35.295Z,10.80
2019-03-23T17:18:42.029Z,10.73
2019-03-23T17:20:48.702Z,10.69
2019-03-23T17:22:55.424Z,10.67
2019-03-23T17:25:02.126Z,10.62
2019-03-23T17:27:09.037Z,10.55
2019-03-23T17:29:15.779Z,10.46
2019-03-23T17:31:22.481Z,10.38
2019-03-23T17:33:29.230Z,10.32
2019-03-23T17:35:36.011Z,10.27
2019-03-23T17:37:42.775Z,10.23
2019-03-23T17:39:49.618Z,10.18
2019-03-23T17:41:56.418Z,10.15
2019-03-23T17:44:04.115Z,10.16
2019-03-23T17:46:11.947Z,10.14
2019-03-23T17:48:18.745Z,10.13
2019-03-23T17:50:25.488Z,10.15
2019-03-23T17:52:32.168Z,10.21
2019-03-23T17:54:39.006Z,10.22
2019-03-23T17:56:45.823Z,10.17
2019-03-23T17:58:52.555Z,10.13
2019-03-23T18:00:59.669Z,10.14
2019-03-23T18:03:07.649Z,10.11
2019-03-23T18:05:16.174Z,10.07
2019-03-23T18:07:23.008Z,10.05
2019-03-23T18:09:29.749Z,10.03
2019-03-23T18:11:36.510Z,10.03
2019-03-23T18:13:43.365Z,10.05
2019-03-23T18:15:50.130Z,10.03
2019-03-23T18:17:56.895Z,9.98
2019-03-23T18:20:05.161Z,9.94
2019-03-23T18:22:11.918Z,9.87
2019-03-23T18:24:18.760Z,9.86
2019-03-23T18:26:25.483Z,9.85
2019-03-23T18:28:32.224Z,9.83
2019-03-23T18:30:41.920Z,9.80
2019-03-23T18:32:48.759Z,9.75
2019-03-23T18:34:55.424Z,9.72
2019-03-23T18:37:02.128Z,9.70
2019-03-23T18:39:08.959Z,9.68
2019-03-23T18:41:15.835Z,9.59
2019-03-23T18:43:27.314Z,9.54
2019-03-23T18:45:31.105Z,9.48
2019-03-23T18:47:37.834Z,9.40
2019-03-23T18:49:44.646Z,9.35
2019-03-23T18:51:51.430Z,9.32
2019-03-23T18:53:58.107Z,9.29
2019-03-23T18:56:04.933Z,9.26
2019-03-23T18:58:12.605Z,9.25
2019-03-23T19:00:41.308Z,9.24
2019-03-23T19:02:47.975Z,9.24
2019-03-23T19:04:54.879Z,9.23
2019-03-23T19:07:01.547Z,9.23
2019-03-23T19:09:08.811Z,9.24
2019-03-23T19:11:15.733Z,9.23
2019-03-23T19:13:22.403Z,9.23
2019-03-23T19:15:29.110Z,9.20
2019-03-23T19:17:35.810Z,9.16
2019-03-23T19:19:42.617Z,9.12
2019-03-23T19:21:49.291Z,9.10
2019-03-23T19:23:56.161Z,9.11
2019-03-23T19:26:02.823Z,9.17
2019-03-23T19:28:09.504Z,9.26
2019-03-23T19:30:17.713Z,9.34
2019-03-23T19:32:24.454Z,9.43
2019-03-23T19:34:31.122Z,9.50
2019-03-23T19:36:37.812Z,9.56
2019-03-23T19:38:44.509Z,9.60
2019-03-23T19:40:51.197Z,9.62
2019-03-23T19:42:59.636Z,9.63
2019-03-23T19:45:08.111Z,9.63
2019-03-23T19:47:14.851Z,9.63
2019-03-23T19:49:21.564Z,9.63
2019-03-23T19:51:28.301Z,9.64
2019-03-23T19:53:35.041Z,9.72
2019-03-23T19:55:42.835Z,9.75
2019-03-23T19:57:54.467Z,9.80
2019-03-23T19:59:59.072Z,9.80
2019-03-23T20:02:05.896Z,9.79
2019-03-23T20:04:12.718Z,9.78
2019-03-23T20:06:19.551Z,9.78
2019-03-23T20:08:26.246Z,9.73
2019-03-23T20:10:34.315Z,9.69
2019-03-23T20:12:42.438Z,9.64
2019-03-23T20:14:50.303Z,9.56
2019-03-23T20:16:57.047Z,9.50
2019-03-23T20:19:03.743Z,9.46
2019-03-23T20:21:10.435Z,9.39
2019-03-23T20:23:18.115Z,9.32
2019-03-23T20:25:24.774Z,9.25
2019-03-23T20:27:31.599Z,9.22
2019-03-23T20:29:38.386Z,9.20
2019-03-23T20:31:46.228Z,9.14
2019-03-23T20:33:52.926Z,9.12
2019-03-23T20:35:59.673Z,9.10
2019-03-23T20:38:07.800Z,9.10
2019-03-23T20:40:15.408Z,9.10
2019-03-23T20:42:22.212Z,9.10
2019-03-23T20:44:28.952Z,9.08
2019-03-23T20:46:35.644Z,9.05
2019-03-23T20:48:43.238Z,9.07
2019-03-23T20:50:50.486Z,9.06
2019-03-23T20:52:58.723Z,9.05
2019-03-23T20:55:08.923Z,9.06
2019-03-23T20:57:23.407Z,9.05
2019-03-23T20:59:26.725Z,9.05
2019-03-23T21:01:33.530Z,9.03
2019-03-23T21:03:40.321Z,9.03
2019-03-23T21:05:47.064Z,9.00
2019-03-23T21:07:53.851Z,8.98
2019-03-23T21:10:02.800Z,8.93
2019-03-23T21:12:10.753Z,8.91
2019-03-23T21:14:20.353Z,8.91
2019-03-23T21:16:25.865Z,8.89
2019-03-23T21:18:32.731Z,8.87
2019-03-23T21:20:39.456Z,8.85
2019-03-23T21:22:46.204Z,8.83
2019-03-23T21:24:53.193Z,8.84
2019-03-23T21:26:59.876Z,8.83
2019-03-23T21:29:06.723Z,8.82
2019-03-23T21:31:13.552Z,8.82
2019-03-23T21:33:20.305Z,8.79
2019-03-23T21:35:27.095Z,8.75
2019-03-23T21:37:35.368Z,8.72
2019-03-23T21:39:42.125Z,8.73
2019-03-23T21:41:50.010Z,8.71
2019-03-23T21:43:56.798Z,8.68
2019-03-23T21:46:03.528Z,8.61
2019-03-23T21:48:10.200Z,8.56
2019-03-23T21:50:16.972Z,8.51
2019-03-23T21:52:23.729Z,8.44
2019-03-23T21:54:31.982Z,8.42
2019-03-23T21:56:38.746Z,8.45
2019-03-23T21:58:45.424Z,8.49
2019-03-23T22:00:52.169Z,8.54
2019-03-23T22:02:58.929Z,8.58
2019-03-23T22:05:07.201Z,8.63
2019-03-23T22:07:14.816Z,8.68
2019-03-23T22:09:22.362Z,8.72
2019-03-23T22:11:29.402Z,8.73
2019-03-23T22:13:37.909Z,8.77
2019-03-23T22:15:46.820Z,8.80
2019-03-23T22:17:52.973Z,8.84
2019-03-23T22:19:59.567Z,8.91
2019-03-23T22:22:06.488Z,8.96
2019-03-23T22:24:15.027Z,9.00
2019-03-23T22:26:22.044Z,9.01
2019-03-23T22:28:28.968Z,8.99
2019-03-23T22:30:35.662Z,8.98
2019-03-23T22:32:42.876Z,8.99
2019-03-23T22:34:50.152Z,9.05
2019-03-23T22:36:56.861Z,9.12
2019-03-23T22:39:06.909Z,9.16
2019-03-23T22:41:13.579Z,9.20
2019-03-23T22:43:20.422Z,9.18
2019-03-23T22:45:27.352Z,9.13
2019-03-23T22:47:34.225Z,9.11
2019-03-23T22:49:41.072Z,9.07
2019-03-23T22:51:47.860Z,9.04
2019-03-23T22:53:55.498Z,9.01
2019-03-23T22:56:02.536Z,8.97
2019-03-23T22:58:09.289Z,8.90
2019-03-23T23:00:21.419Z,8.82
2019-03-23T23:02:29.711Z,8.76
2019-03-23T23:04:46.557Z,8.71
2019-03-23T23:07:05.759Z,8.65
2019-03-23T23:09:20.725Z,8.57
2019-03-23T23:11:31.185Z,8.50
2019-03-23T23:13:39.005Z,8.45
2019-03-23T23:15:45.983Z,8.41
2019-03-23T23:17:52.653Z,8.46
2019-03-23T23:19:59.362Z,8.49
2019-03-23T23:22:06.063Z,8.54
2019-03-23T23:24:12.782Z,8.58
2019-03-23T23:26:19.476Z,8.63
2019-03-23T23:28:32.127Z,8.66
2019-03-23T23:30:38.981Z,8.71
2019-03-23T23:32:45.735Z,8.75
2019-03-23T23:34:52.472Z,8.79
2019-03-23T23:37:00.463Z,8.84
2019-03-23T23:39:08.953Z,8.92
2019-03-23T23:41:15.624Z,8.99
2019-03-23T23:43:22.428Z,9.06
2019-03-23T23:45:29.201Z,9.09
2019-03-23T23:47:35.940Z,9.14
2019-03-23T23:49:42.693Z,9.18
2019-03-23T23:51:50.289Z,9.20
2019-03-23T23:53:57.191Z,9.19
2019-03-23T23:56:03.978Z,9.19
2019-03-23T23:58:11.856Z,9.15
